createdAt,value
2023-05-12T00:02:14.889Z,13.61
2023-05-12T00:05:39.979Z,13.6
2023-05-12T00:09:05.159Z,13.63
2023-05-12T00:12:30.345Z,13.64
2023-05-12T00:15:55.572Z,13.66
2023-05-12T00:19:21.063Z,13.69
2023-05-12T00:22:46.191Z,13.75
2023-05-12T00:26:11.350Z,13.78
2023-05-12T00:29:36.519Z,13.79
2023-05-12T00:33:01.738Z,13.8
2023-05-12T00:36:26.902Z,13.81
2023-05-12T00:39:52.055Z,13.81
2023-05-12T00:43:17.240Z,13.78
2023-05-12T00:46:42.423Z,13.74
2023-05-12T00:50:07.593Z,13.7
2023-05-12T00:53:41.348Z,13.66
2023-05-12T00:56:57.986Z,13.63
2023-05-12T01:00:23.156Z,13.63
2023-05-12T01:03:48.336Z,13.66
2023-05-12T01:07:13.515Z,13.68
2023-05-12T01:10:38.740Z,13.67
2023-05-12T01:14:03.868Z,13.62
2023-05-12T01:17:29.092Z,13.56
2023-05-12T01:20:54.223Z,13.55
2023-05-12T01:24:19.411Z,13.55
2023-05-12T01:27:44.625Z,13.56
2023-05-12T01:31:09.810Z,13.55
2023-05-12T01:34:34.966Z,13.52
2023-05-12T01:38:00.124Z,13.49
2023-05-12T01:41:25.278Z,13.44
2023-05-12T01:44:50.490Z,13.39
2023-05-12T01:48:15.626Z,13.32
2023-05-12T01:51:40.792Z,13.31
2023-05-12T01:55:05.943Z,13.28
2023-05-12T01:58:31.116Z,13.23
2023-05-12T02:01:56.371Z,13.19
2023-05-12T02:05:21.473Z,13.15
2023-05-12T02:08:46.653Z,13.1
2023-05-12T02:12:11.820Z,13.09
2023-05-12T02:15:36.998Z,13.09
2023-05-12T02:20:13.850Z,13.07
2023-05-12T02:23:38.968Z,13.03
2023-05-12T02:27:04.133Z,12.96
2023-05-12T02:30:29.288Z,12.9
2023-05-12T02:33:54.490Z,12.85
2023-05-12T02:37:19.697Z,12.82
2023-05-12T02:40:44.853Z,12.8
2023-05-12T02:44:10.002Z,12.78
2023-05-12T02:47:35.169Z,12.78
2023-05-12T02:51:00.311Z,12.83
2023-05-12T02:54:25.540Z,12.87
2023-05-12T02:57:50.669Z,12.89
2023-05-12T03:01:15.851Z,12.91
2023-05-12T03:04:40.987Z,12.91
2023-05-12T03:08:06.156Z,12.91
2023-05-12T03:11:31.364Z,12.91
2023-05-12T03:14:56.475Z,12.9
2023-05-12T03:18:21.717Z,12.86
2023-05-12T03:21:46.813Z,12.89
2023-05-12T03:25:11.979Z,12.92
2023-05-12T03:28:37.216Z,12.97
2023-05-12T03:32:02.342Z,13.02
2023-05-12T03:35:27.506Z,13.07
2023-05-12T03:38:52.657Z,13.11
2023-05-12T03:42:17.821Z,13.15
2023-05-12T03:45:43.031Z,13.16
2023-05-12T03:49:08.193Z,13.17
2023-05-12T03:52:33.385Z,13.22
2023-05-12T03:55:58.559Z,13.26
2023-05-12T03:59:23.741Z,13.31
2023-05-12T04:02:48.984Z,13.32
2023-05-12T04:06:14.048Z,13.33
2023-05-12T04:09:39.192Z,13.35
2023-05-12T04:13:04.360Z,13.39
2023-05-12T04:16:29.509Z,13.44
2023-05-12T04:19:54.691Z,13.5
2023-05-12T04:23:19.836Z,13.55
2023-05-12T04:26:45.025Z,13.57
2023-05-12T04:30:10.185Z,13.57
2023-05-12T04:33:35.374Z,13.58
2023-05-12T04:37:00.573Z,13.59
2023-05-12T04:40:25.739Z,13.62
2023-05-12T04:47:16.069Z,13.67
2023-05-12T04:50:41.274Z,13.72
2023-05-12T04:54:06.485Z,13.78
2023-05-12T04:57:31.653Z,13.79
2023-05-12T05:00:56.851Z,13.82
2023-05-12T05:04:21.999Z,13.82
2023-05-12T05:07:47.184Z,13.82
2023-05-12T05:11:12.404Z,13.82
2023-05-12T05:14:37.575Z,13.8
2023-05-12T05:18:02.785Z,13.75
2023-05-12T05:21:27.928Z,13.76
2023-05-12T05:24:53.099Z,13.74
2023-05-12T05:28:18.400Z,13.75
2023-05-12T05:31:43.525Z,13.78
2023-05-12T05:35:08.928Z,13.82
2023-05-12T05:38:34.125Z,13.87
2023-05-12T05:41:59.286Z,13.89
2023-05-12T05:45:25.143Z,13.88
2023-05-12T05:48:49.699Z,13.9
2023-05-12T05:52:14.896Z,13.92
2023-05-12T05:55:40.058Z,13.93
2023-05-12T05:59:05.236Z,13.96
2023-05-12T06:02:30.464Z,14.01
2023-05-12T06:05:55.616Z,14.09
2023-05-12T06:09:20.813Z,14.13
2023-05-12T06:12:46.022Z,14.18
2023-05-12T06:16:11.249Z,14.23
2023-05-12T06:19:36.421Z,14.28
2023-05-12T06:23:01.562Z,14.36
2023-05-12T06:26:26.761Z,14.41
2023-05-12T06:29:51.954Z,14.41
2023-05-12T06:33:17.152Z,14.42
2023-05-12T06:36:42.387Z,14.43
2023-05-12T06:40:07.550Z,14.45
2023-05-12T06:43:32.745Z,14.45
2023-05-12T06:46:57.908Z,14.5
2023-05-12T06:50:23.128Z,14.54
2023-05-12T06:53:48.339Z,14.6
2023-05-12T06:57:13.507Z,14.69
2023-05-12T07:00:38.673Z,14.8
2023-05-12T07:04:03.910Z,14.86
2023-05-12T07:07:29.038Z,14.98
2023-05-12T07:10:54.330Z,15.15
2023-05-12T07:14:19.383Z,15.27
2023-05-12T07:17:44.654Z,15.36
2023-05-12T07:21:09.848Z,15.43
2023-05-12T07:24:35.007Z,15.54
2023-05-12T07:28:00.267Z,15.67
2023-05-12T07:31:25.463Z,15.85
2023-05-12T07:34:50.613Z,16.07
2023-05-12T07:38:15.791Z,16.360001
2023-05-12T07:41:40.948Z,16.67
2023-05-12T07:45:06.191Z,16.92
2023-05-12T07:48:31.288Z,17.16
2023-05-12T07:51:57.938Z,17.32
2023-05-12T07:55:23.229Z,17.379999
2023-05-12T07:58:48.276Z,17.370001
2023-05-12T08:02:13.478Z,17.450001
2023-05-12T08:05:38.628Z,17.57
2023-05-12T08:09:03.830Z,17.65
2023-05-12T08:12:28.990Z,17.67
2023-05-12T08:15:54.179Z,17.65
2023-05-12T08:19:19.481Z,17.629999
2023-05-12T08:22:44.574Z,17.700001
2023-05-12T08:26:09.713Z,17.790001
2023-05-12T08:29:35.754Z,17.9
2023-05-12T08:33:00.946Z,18.030001
2023-05-12T08:36:26.207Z,18.200001
2023-05-12T08:39:51.258Z,18.360001
2023-05-12T08:43:16.450Z,18.450001
2023-05-12T08:46:41.684Z,18.59
2023-05-12T08:50:07.004Z,18.709999
2023-05-12T08:53:32.227Z,18.75
2023-05-12T09:00:22.752Z,18.870001
2023-05-12T09:03:47.725Z,18.91
2023-05-12T09:07:12.909Z,18.85
2023-05-12T09:10:38.105Z,18.77
2023-05-12T09:14:03.269Z,18.73
2023-05-12T09:17:28.475Z,18.67
2023-05-12T09:20:53.648Z,18.65
2023-05-12T09:24:18.835Z,18.709999
2023-05-12T09:27:44.105Z,18.84
2023-05-12T09:31:09.242Z,19.01
2023-05-12T09:34:34.419Z,19.129999
2023-05-12T09:37:59.634Z,19.27
2023-05-12T09:41:24.817Z,19.389999
2023-05-12T09:44:50.352Z,19.559999
2023-05-12T09:48:15.489Z,19.629999
2023-05-12T09:51:40.686Z,19.610001
2023-05-12T09:55:05.900Z,19.540001
2023-05-12T09:58:31.102Z,19.4
2023-05-12T10:01:56.343Z,19.25
2023-05-12T10:05:21.711Z,19.07
2023-05-12T10:08:47.337Z,18.93
2023-05-12T10:12:12.501Z,18.75
2023-05-12T10:15:37.737Z,18.620001
2023-05-12T10:19:03.098Z,18.52
2023-05-12T10:22:28.232Z,18.450001
2023-05-12T10:25:53.416Z,18.4
2023-05-12T10:29:18.594Z,18.360001
2023-05-12T10:32:43.856Z,18.280001
2023-05-12T10:36:09.849Z,18.219999
2023-05-12T10:39:35.037Z,18.16
2023-05-12T10:43:00.208Z,18.040001
2023-05-12T10:46:25.472Z,17.889999
2023-05-12T10:49:50.637Z,17.73
2023-05-12T10:53:15.952Z,17.6
2023-05-12T10:56:41.340Z,17.450001
2023-05-12T11:00:07.127Z,17.32
2023-05-12T11:03:33.233Z,17.27
2023-05-12T11:06:57.676Z,17.299999
2023-05-12T11:10:24.319Z,17.360001
2023-05-12T11:13:48.612Z,17.450001
2023-05-12T11:17:13.847Z,17.59
2023-05-12T11:20:39.077Z,17.68
2023-05-12T11:24:04.309Z,17.709999
2023-05-12T11:27:29.584Z,17.719999
2023-05-12T11:30:55.625Z,17.690001
2023-05-12T11:34:19.969Z,17.65
2023-05-12T11:37:45.225Z,17.6
2023-05-12T11:41:10.475Z,17.59
2023-05-12T11:44:35.772Z,17.620001
2023-05-12T11:48:00.949Z,17.66
2023-05-12T11:51:26.104Z,17.719999
2023-05-12T11:54:51.355Z,17.84
2023-05-12T11:58:16.838Z,17.93
2023-05-12T12:01:42.173Z,17.969999
2023-05-12T12:05:09.229Z,18.040001
2023-05-12T12:08:32.564Z,18.16
2023-05-12T12:11:57.801Z,18.34
2023-05-12T12:15:23.039Z,18.629999
2023-05-12T12:18:48.297Z,18.969999
2023-05-12T12:22:13.442Z,19.09
2023-05-12T12:25:38.678Z,19.049999
2023-05-12T12:29:03.915Z,19.049999
2023-05-12T12:32:29.193Z,18.91
2023-05-12T12:35:54.365Z,18.74
2023-05-12T12:39:20.125Z,18.6
2023-05-12T12:42:44.766Z,18.49
2023-05-12T12:46:10.007Z,18.459999
2023-05-12T12:49:35.232Z,18.5
2023-05-12T12:53:00.506Z,18.540001
2023-05-12T12:56:25.737Z,18.540001
2023-05-12T12:59:50.971Z,18.530001
2023-05-12T13:03:17.572Z,18.51
2023-05-12T13:06:41.430Z,18.5
2023-05-12T13:10:06.681Z,18.52
2023-05-12T13:13:31.888Z,18.57
2023-05-12T13:16:57.127Z,18.629999
2023-05-12T13:20:22.498Z,18.690001
2023-05-12T13:23:47.565Z,18.709999
2023-05-12T13:27:12.835Z,18.709999
2023-05-12T13:30:38.061Z,18.73
2023-05-12T13:34:03.253Z,18.75
2023-05-12T13:37:28.491Z,18.799999
2023-05-12T13:40:53.730Z,18.799999
2023-05-12T13:44:19.057Z,18.77
2023-05-12T13:47:44.324Z,18.83
2023-05-12T13:51:09.534Z,18.98
2023-05-12T13:54:34.785Z,19.059999
2023-05-12T13:58:00.016Z,19.07
2023-05-12T14:01:25.305Z,19.01
2023-05-12T14:04:50.482Z,18.950001
2023-05-12T14:08:15.658Z,18.92
2023-05-12T14:11:40.845Z,18.92
2023-05-12T14:15:21.660Z,18.950001
2023-05-12T14:18:31.418Z,18.969999
2023-05-12T14:21:56.527Z,18.98
2023-05-12T14:25:21.857Z,19
2023-05-12T14:28:46.973Z,19.040001
2023-05-12T14:32:12.140Z,19.09
2023-05-12T14:35:37.353Z,19.139999
2023-05-12T14:39:02.559Z,19.209999
2023-05-12T14:42:27.776Z,19.24
2023-05-12T14:45:53.038Z,19.26
2023-05-12T14:49:18.251Z,19.290001
2023-05-12T14:52:43.595Z,19.280001
2023-05-12T14:56:08.740Z,19.27
2023-05-12T14:59:33.959Z,19.24
2023-05-12T15:02:59.424Z,19.23
2023-05-12T15:06:24.605Z,19.17
2023-05-12T15:09:49.841Z,19.139999
2023-05-12T15:45:05.765Z,16.68
2023-05-12T15:48:30.998Z,17.52
2023-05-12T15:51:56.249Z,17.610001
2023-05-12T15:55:21.606Z,17.690001
2023-05-12T15:58:46.729Z,17.719999
2023-05-12T16:02:12.002Z,17.76
2023-05-12T16:05:37.134Z,17.77
2023-05-12T16:09:02.388Z,17.77
2023-05-12T16:12:27.617Z,17.780001
2023-05-12T16:15:52.864Z,17.790001
2023-05-12T16:19:18.270Z,17.860001
2023-05-12T16:22:43.309Z,17.940001
2023-05-12T16:26:08.549Z,18
2023-05-12T16:29:33.800Z,18.01
2023-05-12T16:32:59.068Z,18.02
2023-05-12T16:36:24.267Z,18.059999
2023-05-12T16:39:49.492Z,18.08
2023-05-12T16:43:14.741Z,18.110001
2023-05-12T16:46:41.524Z,18.16
2023-05-12T16:50:05.209Z,18.200001
2023-05-12T16:53:30.474Z,18.24
2023-05-12T16:56:55.664Z,18.26
2023-05-12T17:00:20.893Z,18.26
2023-05-12T17:03:47.104Z,18.219999
2023-05-12T17:07:12.159Z,18.17
2023-05-12T17:10:37.397Z,18.110001
2023-05-12T17:14:02.580Z,18.08
2023-05-12T17:17:27.772Z,18.059999
2023-05-12T17:20:53.005Z,18.049999
2023-05-12T17:24:18.165Z,18.030001
2023-05-12T17:27:43.453Z,18.02
2023-05-12T17:31:08.722Z,18.030001
2023-05-12T17:34:33.959Z,18.030001
2023-05-12T17:37:59.241Z,18.030001
2023-05-12T17:41:25.499Z,18.049999
2023-05-12T17:44:49.722Z,18.059999
2023-05-12T17:48:14.989Z,18.049999
2023-05-12T17:51:40.210Z,18.02
2023-05-12T17:55:05.486Z,18.01
2023-05-12T17:58:30.765Z,18.01
2023-05-12T18:01:56.018Z,17.98
2023-05-12T18:05:21.583Z,17.950001
2023-05-12T18:08:46.745Z,17.85
2023-05-12T18:12:12.006Z,17.73
2023-05-12T18:15:37.206Z,17.67
2023-05-12T18:19:02.496Z,17.629999
2023-05-12T18:22:27.703Z,17.58
2023-05-12T18:25:52.929Z,17.540001
2023-05-12T18:29:18.134Z,17.459999
2023-05-12T18:32:43.430Z,17.41
2023-05-12T18:36:08.643Z,17.34
2023-05-12T18:39:33.815Z,17.280001
2023-05-12T18:42:59.017Z,17.190001
2023-05-12T18:46:24.476Z,17.110001
2023-05-12T18:49:49.642Z,17.01
2023-05-12T18:53:14.859Z,16.870001
2023-05-12T18:56:40.112Z,16.709999
2023-05-12T19:00:05.335Z,16.48
2023-05-12T19:03:31.704Z,16.35
2023-05-12T19:06:56.945Z,16.290001
2023-05-12T19:10:22.244Z,16.24
2023-05-12T19:13:47.493Z,16.190001
2023-05-12T19:17:12.714Z,16.16
2023-05-12T19:20:37.929Z,16.08
2023-05-12T19:24:03.185Z,16.030001
2023-05-12T19:27:28.450Z,15.98
2023-05-12T19:30:53.642Z,15.95
2023-05-12T19:34:18.865Z,15.93
2023-05-12T19:37:44.087Z,15.94
2023-05-12T19:41:09.298Z,15.94
2023-05-12T19:44:34.512Z,15.94
2023-05-12T19:47:59.713Z,15.94
2023-05-12T19:51:24.924Z,15.91
2023-05-12T19:54:50.135Z,15.91
2023-05-12T19:58:15.387Z,15.84
2023-05-12T20:01:40.729Z,15.8
2023-05-12T20:05:05.831Z,15.71
2023-05-12T20:08:31.060Z,15.65
2023-05-12T20:11:56.287Z,15.59
2023-05-12T20:15:21.776Z,15.53
2023-05-12T20:18:46.814Z,15.47
2023-05-12T20:22:11.935Z,15.41
2023-05-12T20:25:37.125Z,15.37
2023-05-12T20:29:02.306Z,15.32
2023-05-12T20:32:27.503Z,15.27
2023-05-12T20:35:52.690Z,15.24
2023-05-12T20:39:17.866Z,15.2
2023-05-12T20:42:43.005Z,15.18
2023-05-12T20:46:08.264Z,15.17
2023-05-12T20:49:33.360Z,15.16
2023-05-12T20:52:58.560Z,15.13
2023-05-12T20:56:23.705Z,15.08
2023-05-12T20:59:48.895Z,15.05
2023-05-12T21:03:14.689Z,15.01
2023-05-12T21:06:39.832Z,14.97
2023-05-12T21:10:05.038Z,14.93
2023-05-12T21:13:30.176Z,14.91
2023-05-12T21:16:55.385Z,14.87
2023-05-12T21:20:20.739Z,14.85
2023-05-12T21:23:45.669Z,14.86
2023-05-12T21:27:10.914Z,14.86
2023-05-12T21:30:36.041Z,14.87
2023-05-12T21:34:01.197Z,14.87
2023-05-12T21:37:26.360Z,14.85
2023-05-12T21:40:51.537Z,14.84
2023-05-12T21:44:16.758Z,14.81
2023-05-12T21:47:41.917Z,14.79
2023-05-12T21:51:07.059Z,14.75
2023-05-12T21:54:32.232Z,14.7
2023-05-12T21:57:57.411Z,14.66
2023-05-12T22:01:22.699Z,14.64
2023-05-12T22:04:47.742Z,14.6
2023-05-12T22:08:12.932Z,14.58
2023-05-12T22:11:38.115Z,14.55
2023-05-12T22:15:03.297Z,14.52
2023-05-12T22:18:28.494Z,14.48
2023-05-12T22:21:53.597Z,14.46
2023-05-12T22:25:18.744Z,14.44
2023-05-12T22:28:43.893Z,14.41
2023-05-12T22:32:09.077Z,14.4
2023-05-12T22:35:34.250Z,14.4
2023-05-12T22:38:59.351Z,14.38
2023-05-12T22:42:24.556Z,14.34
2023-05-12T22:45:49.704Z,14.33
2023-05-12T22:49:14.870Z,14.32
2023-05-12T22:52:40.073Z,14.32
2023-05-12T22:56:05.222Z,14.33
2023-05-12T22:59:30.388Z,14.32
2023-05-12T23:02:55.580Z,14.3
2023-05-12T23:06:20.722Z,14.28
2023-05-12T23:09:45.924Z,14.25
2023-05-12T23:13:11.094Z,14.26
2023-05-12T23:16:36.323Z,14.27
2023-05-12T23:20:01.461Z,14.26
2023-05-12T23:23:26.640Z,14.26
2023-05-12T23:26:51.818Z,14.24
2023-05-12T23:30:16.928Z,14.21
2023-05-12T23:33:42.140Z,14.15
2023-05-12T23:37:07.281Z,14.11
2023-05-12T23:40:32.449Z,14.09
2023-05-12T23:43:57.640Z,14.07
2023-05-12T23:47:22.963Z,14.03
2023-05-12T23:50:47.986Z,13.97
2023-05-12T23:54:13.153Z,13.89
2023-05-12T23:57:38.329Z,13.81
